sensor_id;sensor_type;location;lat;lon;timestamp;P1;durP1;ratioP1;P2;durP2;ratioP2
934;SDS011;454;53.254;10.400;2022-08-03T04:01:05;7.60;;;7.20;;
934;SDS011;454;53.254;10.400;2022-08-03T04:03:32;7.77;;;7.27;;
934;SDS011;454;53.254;10.400;2022-08-03T04:06:00;7.83;;;7.33;;
934;SDS011;454;53.254;10.400;2022-08-03T04:08:45;8.40;;;8.00;;
934;SDS011;454;53.254;10.400;2022-08-03T04:11:38;8.90;;;8.40;;
934;SDS011;454;53.254;10.400;2022-08-03T04:14:09;7.87;;;7.47;;
934;SDS011;454;53.254;10.400;2022-08-03T04:16:40;9.70;;;8.70;;
934;SDS011;454;53.254;10.400;2022-08-03T04:19:10;7.50;;;7.10;;
934;SDS011;454;53.254;10.400;2022-08-03T04:21:47;7.87;;;7.33;;
934;SDS011;454;53.254;10.400;2022-08-03T04:24:22;8.47;;;7.97;;
934;SDS011;454;53.254;10.400;2022-08-03T04:26:50;8.20;;;7.83;;
934;SDS011;454;53.254;10.400;2022-08-03T04:29:18;7.93;;;7.53;;
934;SDS011;454;53.254;10.400;2022-08-03T04:31:48;7.70;;;7.40;;
934;SDS011;454;53.254;10.400;2022-08-03T04:34:17;8.90;;;8.30;;
934;SDS011;454;53.254;10.400;2022-08-03T04:36:46;7.63;;;7.27;;
934;SDS011;454;53.254;10.400;2022-08-03T04:39:17;8.03;;;7.57;;
934;SDS011;454;53.254;10.400;2022-08-03T04:41:49;7.30;;;6.80;;
934;SDS011;454;53.254;10.400;2022-08-03T04:44:19;7.57;;;7.20;;
934;SDS011;454;53.254;10.400;2022-08-03T04:46:50;6.23;;;6.03;;
934;SDS011;454;53.254;10.400;2022-08-03T04:49:17;7.83;;;6.40;;
934;SDS011;454;53.254;10.400;2022-08-03T04:51:46;6.27;;;6.07;;
934;SDS011;454;53.254;10.400;2022-08-03T04:54:14;6.10;;;5.80;;
934;SDS011;454;53.254;10.400;2022-08-03T04:56:41;6.13;;;5.90;;
934;SDS011;454;53.254;10.400;2022-08-03T04:59:09;5.83;;;5.60;;
934;SDS011;454;53.254;10.400;2022-08-03T05:01:36;7.40;;;7.03;;
934;SDS011;454;53.254;10.400;2022-08-03T05:04:05;7.90;;;7.40;;
934;SDS011;454;53.254;10.400;2022-08-03T05:06:32;7.30;;;6.90;;
934;SDS011;454;53.254;10.400;2022-08-03T05:08:59;6.13;;;5.93;;
934;SDS011;454;53.254;10.400;2022-08-03T05:11:25;7.17;;;6.57;;
934;SDS011;454;53.254;10.400;2022-08-03T05:13:53;6.30;;;6.10;;
934;SDS011;454;53.254;10.400;2022-08-03T05:16:20;6.40;;;6.20;;
934;SDS011;454;53.254;10.400;2022-08-03T05:18:47;6.37;;;6.00;;
934;SDS011;454;53.254;10.400;2022-08-03T05:21:15;6.70;;;6.50;;
934;SDS011;454;53.254;10.400;2022-08-03T05:23:41;6.50;;;6.27;;
934;SDS011;454;53.254;10.400;2022-08-03T05:26:08;5.80;;;5.60;;
934;SDS011;454;53.254;10.400;2022-08-03T05:28:36;6.37;;;6.17;;
934;SDS011;454;53.254;10.400;2022-08-03T05:31:03;7.13;;;6.73;;
934;SDS011;454;53.254;10.400;2022-08-03T05:33:30;7.10;;;6.70;;
934;SDS011;454;53.254;10.400;2022-08-03T05:35:57;7.10;;;6.80;;
934;SDS011;454;53.254;10.400;2022-08-03T05:38:26;7.20;;;6.80;;
934;SDS011;454;53.254;10.400;2022-08-03T05:40:52;7.27;;;6.90;;
934;SDS011;454;53.254;10.400;2022-08-03T05:43:19;7.67;;;7.37;;
934;SDS011;454;53.254;10.400;2022-08-03T05:45:46;7.47;;;7.07;;
934;SDS011;454;53.254;10.400;2022-08-03T05:48:13;7.30;;;7.00;;
934;SDS011;454;53.254;10.400;2022-08-03T05:50:40;7.70;;;7.40;;
934;SDS011;454;53.254;10.400;2022-08-03T05:53:07;7.23;;;6.90;;
934;SDS011;454;53.254;10.400;2022-08-03T05:55:35;7.47;;;7.07;;
934;SDS011;454;53.254;10.400;2022-08-03T05:58:01;6.70;;;6.40;;
934;SDS011;454;53.254;10.400;2022-08-03T06:00:28;7.80;;;7.30;;
934;SDS011;454;53.254;10.400;2022-08-03T06:02:55;7.30;;;7.00;;
934;SDS011;454;53.254;10.400;2022-08-03T06:05:22;7.30;;;7.00;;
934;SDS011;454;53.254;10.400;2022-08-03T06:07:51;6.30;;;5.93;;
934;SDS011;454;53.254;10.400;2022-08-03T06:10:18;5.90;;;5.70;;
934;SDS011;454;53.254;10.400;2022-08-03T06:12:46;6.83;;;6.57;;
934;SDS011;454;53.254;10.400;2022-08-03T06:15:14;6.30;;;6.00;;
934;SDS011;454;53.254;10.400;2022-08-03T06:17:45;5.30;;;5.20;;
934;SDS011;454;53.254;10.400;2022-08-03T06:20:14;5.60;;;5.40;;
934;SDS011;454;53.254;10.400;2022-08-03T06:22:42;5.27;;;5.17;;
934;SDS011;454;53.254;10.400;2022-08-03T06:25:09;5.27;;;5.10;;
934;SDS011;454;53.254;10.400;2022-08-03T06:27:35;5.10;;;4.80;;
934;SDS011;454;53.254;10.400;2022-08-03T06:30:06;5.50;;;5.30;;
934;SDS011;454;53.254;10.400;2022-08-03T06:32:34;5.17;;;5.07;;
934;SDS011;454;53.254;10.400;2022-08-03T06:35:01;5.30;;;5.10;;
934;SDS011;454;53.254;10.400;2022-08-03T06:37:28;5.10;;;4.90;;
934;SDS011;454;53.254;10.400;2022-08-03T06:39:55;5.33;;;5.00;;
934;SDS011;454;53.254;10.400;2022-08-03T06:42:22;4.97;;;4.77;;
934;SDS011;454;53.254;10.400;2022-08-03T06:44:48;5.07;;;4.77;;
934;SDS011;454;53.254;10.400;2022-08-03T06:47:17;4.30;;;4.00;;
934;SDS011;454;53.254;10.400;2022-08-03T06:49:43;3.53;;;3.53;;
934;SDS011;454;53.254;10.400;2022-08-03T06:52:10;3.60;;;3.60;;
934;SDS011;454;53.254;10.400;2022-08-03T06:54:37;4.17;;;4.07;;
934;SDS011;454;53.254;10.400;2022-08-03T06:57:04;4.43;;;4.37;;
934;SDS011;454;53.254;10.400;2022-08-03T06:59:32;3.83;;;3.73;;
934;SDS011;454;53.254;10.400;2022-08-03T07:01:58;4.13;;;3.87;;
934;SDS011;454;53.254;10.400;2022-08-03T07:04:26;3.50;;;3.50;;
934;SDS011;454;53.254;10.400;2022-08-03T07:06:53;3.63;;;3.53;;
934;SDS011;454;53.254;10.400;2022-08-03T07:09:20;3.37;;;3.37;;
934;SDS011;454;53.254;10.400;2022-08-03T07:11:47;3.67;;;3.57;;
934;SDS011;454;53.254;10.400;2022-08-03T07:14:13;3.67;;;3.67;;
934;SDS011;454;53.254;10.400;2022-08-03T07:16:40;3.17;;;3.07;;
934;SDS011;454;53.254;10.400;2022-08-03T07:19:07;3.53;;;3.53;;
934;SDS011;454;53.254;10.400;2022-08-03T07:21:35;3.27;;;3.07;;
934;SDS011;454;53.254;10.400;2022-08-03T07:24:01;3.20;;;3.03;;
934;SDS011;454;53.254;10.400;2022-08-03T07:26:28;3.47;;;3.37;;
934;SDS011;454;53.254;10.400;2022-08-03T07:28:55;3.43;;;3.23;;
934;SDS011;454;53.254;10.400;2022-08-03T07:31:22;3.30;;;3.30;;
934;SDS011;454;53.254;10.400;2022-08-03T07:33:49;2.90;;;2.80;;
934;SDS011;454;53.254;10.400;2022-08-03T07:36:15;2.97;;;2.93;;
934;SDS011;454;53.254;10.400;2022-08-03T07:38:43;2.80;;;2.80;;
934;SDS011;454;53.254;10.400;2022-08-03T07:41:10;2.70;;;2.60;;
934;SDS011;454;53.254;10.400;2022-08-03T07:43:37;2.50;;;2.50;;
934;SDS011;454;53.254;10.400;2022-08-03T07:46:04;2.40;;;2.40;;
934;SDS011;454;53.254;10.400;2022-08-03T07:48:30;3.13;;;2.93;;
934;SDS011;454;53.254;10.400;2022-08-03T07:50:57;2.20;;;2.20;;
934;SDS011;454;53.254;10.400;2022-08-03T07:53:24;2.70;;;2.60;;
934;SDS011;454;53.254;10.400;2022-08-03T07:55:52;2.50;;;2.40;;
934;SDS011;454;53.254;10.400;2022-08-03T07:58:18;2.77;;;2.77;;
934;SDS011;454;53.254;10.400;2022-08-03T08:00:46;2.80;;;2.60;;
934;SDS011;454;53.254;10.400;2022-08-03T08:03:14;3.27;;;3.17;;
934;SDS011;454;53.254;10.400;2022-08-03T08:05:41;2.77;;;2.77;;
934;SDS011;454;53.254;10.400;2022-08-03T08:08:08;3.17;;;3.07;;
934;SDS011;454;53.254;10.400;2022-08-03T08:10:35;2.90;;;2.90;;
934;SDS011;454;53.254;10.400;2022-08-03T08:13:03;3.93;;;3.73;;
934;SDS011;454;53.254;10.400;2022-08-03T08:15:30;3.10;;;3.00;;
934;SDS011;454;53.254;10.400;2022-08-03T08:17:58;2.93;;;2.83;;
934;SDS011;454;53.254;10.400;2022-08-03T08:20:27;3.43;;;3.27;;
934;SDS011;454;53.254;10.400;2022-08-03T08:22:55;2.93;;;2.73;;
934;SDS011;454;53.254;10.400;2022-08-03T08:25:23;2.77;;;2.67;;
934;SDS011;454;53.254;10.400;2022-08-03T08:27:50;2.70;;;2.60;;
934;SDS011;454;53.254;10.400;2022-08-03T08:30:19;2.73;;;2.63;;
934;SDS011;454;53.254;10.400;2022-08-03T08:32:47;2.47;;;2.40;;
934;SDS011;454;53.254;10.400;2022-08-03T08:35:14;2.40;;;2.30;;
934;SDS011;454;53.254;10.400;2022-08-03T08:37:42;2.27;;;2.27;;
934;SDS011;454;53.254;10.400;2022-08-03T08:40:09;2.37;;;2.37;;
934;SDS011;454;53.254;10.400;2022-08-03T08:42:37;2.33;;;2.13;;
934;SDS011;454;53.254;10.400;2022-08-03T08:45:06;2.20;;;2.20;;
934;SDS011;454;53.254;10.400;2022-08-03T08:47:36;2.47;;;2.37;;
934;SDS011;454;53.254;10.400;2022-08-03T08:50:06;3.73;;;2.13;;
934;SDS011;454;53.254;10.400;2022-08-03T08:52:34;2.57;;;2.47;;
934;SDS011;454;53.254;10.400;2022-08-03T08:55:02;5.20;;;2.60;;
934;SDS011;454;53.254;10.400;2022-08-03T08:57:32;1.97;;;1.87;;
934;SDS011;454;53.254;10.400;2022-08-03T09:00:03;3.90;;;2.50;;
934;SDS011;454;53.254;10.400;2022-08-03T09:02:32;2.53;;;2.43;;
934;SDS011;454;53.254;10.400;2022-08-03T09:05:00;3.57;;;2.33;;
934;SDS011;454;53.254;10.400;2022-08-03T09:07:27;2.70;;;2.50;;
934;SDS011;454;53.254;10.400;2022-08-03T09:09:54;2.80;;;2.60;;
934;SDS011;454;53.254;10.400;2022-08-03T09:12:21;2.43;;;2.30;;
934;SDS011;454;53.254;10.400;2022-08-03T09:14:48;2.37;;;2.27;;
934;SDS011;454;53.254;10.400;2022-08-03T09:17:16;3.43;;;2.50;;
934;SDS011;454;53.254;10.400;2022-08-03T09:19:42;2.20;;;2.20;;
934;SDS011;454;53.254;10.400;2022-08-03T09:22:31;2.60;;;2.60;;
934;SDS011;454;53.254;10.400;2022-08-03T09:24:59;5.20;;;2.30;;
934;SDS011;454;53.254;10.400;2022-08-03T09:27:27;2.00;;;1.67;;
934;SDS011;454;53.254;10.400;2022-08-03T09:29:54;2.33;;;2.20;;
934;SDS011;454;53.254;10.400;2022-08-03T09:32:21;2.40;;;2.23;;
934;SDS011;454;53.254;10.400;2022-08-03T09:34:50;2.03;;;1.93;;
934;SDS011;454;53.254;10.400;2022-08-03T09:37:19;4.30;;;1.90;;
934;SDS011;454;53.254;10.400;2022-08-03T09:39:49;1.80;;;1.70;;
934;SDS011;454;53.254;10.400;2022-08-03T09:42:16;3.63;;;2.33;;
934;SDS011;454;53.254;10.400;2022-08-03T09:44:46;2.77;;;2.50;;
934;SDS011;454;53.254;10.400;2022-08-03T09:47:15;2.77;;;2.57;;
934;SDS011;454;53.254;10.400;2022-08-03T09:49:55;2.17;;;2.07;;
934;SDS011;454;53.254;10.400;2022-08-03T09:52:29;3.00;;;2.80;;
934;SDS011;454;53.254;10.400;2022-08-03T09:54:57;2.07;;;2.00;;
934;SDS011;454;53.254;10.400;2022-08-03T09:57:25;2.10;;;2.10;;
934;SDS011;454;53.254;10.400;2022-08-03T09:59:54;2.23;;;2.10;;
934;SDS011;454;53.254;10.400;2022-08-03T10:02:34;9.73;;;2.10;;
934;SDS011;454;53.254;10.400;2022-08-03T10:05:02;2.00;;;2.00;;
934;SDS011;454;53.254;10.400;2022-08-03T10:07:40;2.50;;;2.30;;
934;SDS011;454;53.254;10.400;2022-08-03T10:10:08;2.10;;;2.00;;
934;SDS011;454;53.254;10.400;2022-08-03T10:12:35;2.07;;;2.00;;
934;SDS011;454;53.254;10.400;2022-08-03T10:15:02;2.63;;;2.50;;
934;SDS011;454;53.254;10.400;2022-08-03T10:17:29;2.53;;;2.33;;
934;SDS011;454;53.254;10.400;2022-08-03T10:19:56;2.63;;;2.43;;
934;SDS011;454;53.254;10.400;2022-08-03T10:22:25;2.20;;;2.20;;
934;SDS011;454;53.254;10.400;2022-08-03T10:24:55;2.47;;;2.27;;
934;SDS011;454;53.254;10.400;2022-08-03T10:27:26;3.73;;;2.23;;
934;SDS011;454;53.254;10.400;2022-08-03T10:29:57;2.00;;;1.90;;
934;SDS011;454;53.254;10.400;2022-08-03T10:32:27;2.10;;;2.10;;
934;SDS011;454;53.254;10.400;2022-08-03T10:34:58;2.53;;;2.33;;
934;SDS011;454;53.254;10.400;2022-08-03T10:37:31;2.57;;;2.37;;
934;SDS011;454;53.254;10.400;2022-08-03T10:40:07;2.23;;;1.97;;
934;SDS011;454;53.254;10.400;2022-08-03T10:42:38;2.27;;;2.17;;
934;SDS011;454;53.254;10.400;2022-08-03T10:45:08;1.93;;;1.83;;
934;SDS011;454;53.254;10.400;2022-08-03T10:47:40;4.03;;;2.40;;
934;SDS011;454;53.254;10.400;2022-08-03T10:50:07;2.20;;;2.10;;
934;SDS011;454;53.254;10.400;2022-08-03T10:52:42;1.90;;;1.90;;
934;SDS011;454;53.254;10.400;2022-08-03T10:55:30;4.27;;;2.40;;
934;SDS011;454;53.254;10.400;2022-08-03T11:01:19;2.97;;;2.77;;
934;SDS011;454;53.254;10.400;2022-08-03T11:04:23;4.63;;;2.23;;
934;SDS011;454;53.254;10.400;2022-08-03T11:09:46;2.40;;;2.20;;
934;SDS011;454;53.254;10.400;2022-08-03T11:12:21;2.20;;;2.20;;
934;SDS011;454;53.254;10.400;2022-08-03T11:14:49;3.37;;;2.10;;
934;SDS011;454;53.254;10.400;2022-08-03T11:17:16;2.00;;;1.90;;
934;SDS011;454;53.254;10.400;2022-08-03T11:19:44;2.63;;;2.50;;
934;SDS011;454;53.254;10.400;2022-08-03T11:22:13;2.20;;;2.10;;
934;SDS011;454;53.254;10.400;2022-08-03T11:24:59;2.73;;;2.13;;
934;SDS011;454;53.254;10.400;2022-08-03T11:27:28;2.20;;;2.00;;
934;SDS011;454;53.254;10.400;2022-08-03T11:29:57;2.20;;;2.10;;
934;SDS011;454;53.254;10.400;2022-08-03T11:35:24;2.27;;;2.07;;
934;SDS011;454;53.254;10.400;2022-08-03T11:40:49;2.40;;;2.30;;
934;SDS011;454;53.254;10.400;2022-08-03T11:46:12;2.50;;;2.40;;
934;SDS011;454;53.254;10.400;2022-08-03T11:48:43;2.13;;;2.03;;
934;SDS011;454;53.254;10.400;2022-08-03T11:51:20;2.30;;;2.20;;
934;SDS011;454;53.254;10.400;2022-08-03T11:53:52;4.50;;;1.97;;
934;SDS011;454;53.254;10.400;2022-08-03T11:56:24;3.77;;;2.10;;
934;SDS011;454;53.254;10.400;2022-08-03T11:58:54;2.43;;;2.30;;
934;SDS011;454;53.254;10.400;2022-08-03T12:01:23;4.00;;;1.80;;
934;SDS011;454;53.254;10.400;2022-08-03T12:03:50;2.10;;;2.00;;
934;SDS011;454;53.254;10.400;2022-08-03T12:06:17;2.13;;;2.00;;
934;SDS011;454;53.254;10.400;2022-08-03T12:08:44;2.70;;;2.07;;
934;SDS011;454;53.254;10.400;2022-08-03T12:11:12;2.00;;;1.90;;
934;SDS011;454;53.254;10.400;2022-08-03T12:13:41;2.60;;;1.80;;
934;SDS011;454;53.254;10.400;2022-08-03T12:16:11;7.00;;;2.10;;
934;SDS011;454;53.254;10.400;2022-08-03T12:18:43;1.70;;;1.60;;
934;SDS011;454;53.254;10.400;2022-08-03T12:21:10;2.43;;;2.30;;
934;SDS011;454;53.254;10.400;2022-08-03T12:23:37;1.67;;;1.57;;
934;SDS011;454;53.254;10.400;2022-08-03T12:26:05;2.73;;;1.50;;
934;SDS011;454;53.254;10.400;2022-08-03T12:28:33;1.70;;;1.60;;
934;SDS011;454;53.254;10.400;2022-08-03T12:31:03;2.07;;;1.97;;
934;SDS011;454;53.254;10.400;2022-08-03T12:33:53;1.50;;;1.50;;
934;SDS011;454;53.254;10.400;2022-08-03T12:36:20;2.93;;;1.73;;
934;SDS011;454;53.254;10.400;2022-08-03T12:38:53;1.77;;;1.63;;
934;SDS011;454;53.254;10.400;2022-08-03T12:41:26;1.67;;;1.57;;
934;SDS011;454;53.254;10.400;2022-08-03T12:43:54;1.47;;;1.47;;
934;SDS011;454;53.254;10.400;2022-08-03T12:46:22;1.40;;;1.40;;
934;SDS011;454;53.254;10.400;2022-08-03T12:49:00;1.53;;;1.50;;
934;SDS011;454;53.254;10.400;2022-08-03T12:51:32;2.07;;;2.07;;
934;SDS011;454;53.254;10.400;2022-08-03T12:54:00;3.67;;;2.20;;
934;SDS011;454;53.254;10.400;2022-08-03T12:56:28;2.10;;;1.97;;
934;SDS011;454;53.254;10.400;2022-08-03T12:58:55;2.13;;;2.00;;
934;SDS011;454;53.254;10.400;2022-08-03T13:01:22;2.23;;;2.10;;
934;SDS011;454;53.254;10.400;2022-08-03T13:03:51;3.23;;;2.40;;
934;SDS011;454;53.254;10.400;2022-08-03T13:06:20;1.67;;;1.60;;
934;SDS011;454;53.254;10.400;2022-08-03T13:08:48;3.47;;;1.60;;
934;SDS011;454;53.254;10.400;2022-08-03T13:11:17;4.37;;;1.70;;
934;SDS011;454;53.254;10.400;2022-08-03T13:13:44;1.53;;;1.50;;
934;SDS011;454;53.254;10.400;2022-08-03T13:16:11;1.53;;;1.53;;
934;SDS011;454;53.254;10.400;2022-08-03T13:18:38;4.07;;;3.27;;
934;SDS011;454;53.254;10.400;2022-08-03T13:21:05;3.50;;;1.97;;
934;SDS011;454;53.254;10.400;2022-08-03T13:23:33;3.53;;;2.10;;
934;SDS011;454;53.254;10.400;2022-08-03T13:26:00;1.93;;;1.80;;
934;SDS011;454;53.254;10.400;2022-08-03T13:28:26;2.07;;;1.90;;
934;SDS011;454;53.254;10.400;2022-08-03T13:30:53;2.30;;;1.93;;
934;SDS011;454;53.254;10.400;2022-08-03T13:33:20;3.73;;;2.40;;
934;SDS011;454;53.254;10.400;2022-08-03T13:35:47;1.53;;;1.50;;
934;SDS011;454;53.254;10.400;2022-08-03T13:38:13;2.47;;;1.40;;
934;SDS011;454;53.254;10.400;2022-08-03T13:40:41;2.80;;;1.50;;
934;SDS011;454;53.254;10.400;2022-08-03T13:43:08;4.10;;;1.90;;
934;SDS011;454;53.254;10.400;2022-08-03T13:45:35;3.00;;;1.40;;
934;SDS011;454;53.254;10.400;2022-08-03T13:48:04;1.77;;;1.60;;
934;SDS011;454;53.254;10.400;2022-08-03T13:50:32;2.60;;;1.70;;
934;SDS011;454;53.254;10.400;2022-08-03T13:52:58;1.40;;;1.30;;
934;SDS011;454;53.254;10.400;2022-08-03T13:55:25;2.30;;;1.37;;
934;SDS011;454;53.254;10.400;2022-08-03T13:57:53;3.37;;;1.63;;
934;SDS011;454;53.254;10.400;2022-08-03T14:00:20;1.70;;;1.60;;
934;SDS011;454;53.254;10.400;2022-08-03T14:02:50;1.60;;;1.60;;
934;SDS011;454;53.254;10.400;2022-08-03T14:05:16;2.63;;;1.90;;
934;SDS011;454;53.254;10.400;2022-08-03T14:07:43;2.00;;;2.00;;
934;SDS011;454;53.254;10.400;2022-08-03T14:10:10;2.17;;;2.07;;
934;SDS011;454;53.254;10.400;2022-08-03T14:12:37;2.83;;;1.87;;
934;SDS011;454;53.254;10.400;2022-08-03T14:15:06;1.63;;;1.53;;
934;SDS011;454;53.254;10.400;2022-08-03T14:17:34;1.80;;;1.60;;
934;SDS011;454;53.254;10.400;2022-08-03T14:20:00;2.00;;;1.80;;
934;SDS011;454;53.254;10.400;2022-08-03T14:22:29;5.13;;;2.20;;
934;SDS011;454;53.254;10.400;2022-08-03T14:24:55;1.80;;;1.70;;
934;SDS011;454;53.254;10.400;2022-08-03T14:27:22;1.80;;;1.70;;
934;SDS011;454;53.254;10.400;2022-08-03T14:29:49;1.57;;;1.53;;
934;SDS011;454;53.254;10.400;2022-08-03T14:32:17;1.80;;;1.70;;
934;SDS011;454;53.254;10.400;2022-08-03T14:34:44;1.70;;;1.60;;
934;SDS011;454;53.254;10.400;2022-08-03T14:37:10;1.80;;;1.80;;
934;SDS011;454;53.254;10.400;2022-08-03T14:39:37;3.70;;;2.10;;
934;SDS011;454;53.254;10.400;2022-08-03T14:42:04;2.00;;;1.90;;
934;SDS011;454;53.254;10.400;2022-08-03T14:44:31;2.23;;;1.90;;
934;SDS011;454;53.254;10.400;2022-08-03T14:46:58;5.13;;;1.97;;
934;SDS011;454;53.254;10.400;2022-08-03T14:49:26;2.23;;;1.70;;
934;SDS011;454;53.254;10.400;2022-08-03T14:51:52;2.73;;;1.50;;
934;SDS011;454;53.254;10.400;2022-08-03T14:54:19;2.07;;;1.93;;
934;SDS011;454;53.254;10.400;2022-08-03T14:56:46;1.67;;;1.67;;
934;SDS011;454;53.254;10.400;2022-08-03T14:59:13;3.30;;;1.70;;
934;SDS011;454;53.254;10.400;2022-08-03T15:01:40;1.90;;;1.80;;
934;SDS011;454;53.254;10.400;2022-08-03T15:04:06;1.60;;;1.50;;
934;SDS011;454;53.254;10.400;2022-08-03T15:06:35;1.83;;;1.80;;
934;SDS011;454;53.254;10.400;2022-08-03T15:09:02;2.20;;;2.10;;
934;SDS011;454;53.254;10.400;2022-08-03T15:11:28;1.70;;;1.60;;
934;SDS011;454;53.254;10.400;2022-08-03T15:13:55;6.23;;;2.30;;
934;SDS011;454;53.254;10.400;2022-08-03T15:16:22;2.10;;;2.00;;
934;SDS011;454;53.254;10.400;2022-08-03T15:18:49;2.03;;;1.80;;
934;SDS011;454;53.254;10.400;2022-08-03T15:21:15;2.07;;;1.90;;
934;SDS011;454;53.254;10.400;2022-08-03T15:23:44;2.13;;;1.70;;
934;SDS011;454;53.254;10.400;2022-08-03T15:26:10;2.30;;;2.20;;
934;SDS011;454;53.254;10.400;2022-08-03T15:28:37;1.77;;;1.30;;
934;SDS011;454;53.254;10.400;2022-08-03T15:31:04;2.73;;;1.80;;
934;SDS011;454;53.254;10.400;2022-08-03T15:33:31;2.27;;;2.17;;
934;SDS011;454;53.254;10.400;2022-08-03T15:35:58;3.00;;;1.97;;
934;SDS011;454;53.254;10.400;2022-08-03T15:38:24;3.70;;;2.27;;
934;SDS011;454;53.254;10.400;2022-08-03T15:40:53;1.83;;;1.83;;
934;SDS011;454;53.254;10.400;2022-08-03T15:43:20;2.10;;;2.10;;
934;SDS011;454;53.254;10.400;2022-08-03T15:45:47;1.57;;;1.47;;
934;SDS011;454;53.254;10.400;2022-08-03T15:48:13;2.33;;;1.80;;
934;SDS011;454;53.254;10.400;2022-08-03T15:50:40;1.90;;;1.80;;
934;SDS011;454;53.254;10.400;2022-08-03T15:53:07;2.00;;;2.00;;
934;SDS011;454;53.254;10.400;2022-08-03T15:55:34;1.67;;;1.57;;
934;SDS011;454;53.254;10.400;2022-08-03T15:58:02;2.33;;;2.33;;
934;SDS011;454;53.254;10.400;2022-08-03T16:00:29;2.20;;;2.10;;
934;SDS011;454;53.254;10.400;2022-08-03T16:02:55;4.20;;;2.60;;
934;SDS011;454;53.254;10.400;2022-08-03T16:05:23;2.37;;;2.17;;
934;SDS011;454;53.254;10.400;2022-08-03T16:07:50;2.00;;;1.90;;
934;SDS011;454;53.254;10.400;2022-08-03T16:10:18;1.90;;;1.90;;
934;SDS011;454;53.254;10.400;2022-08-03T16:12:45;2.37;;;1.97;;
934;SDS011;454;53.254;10.400;2022-08-03T16:15:13;2.33;;;2.10;;
934;SDS011;454;53.254;10.400;2022-08-03T16:17:41;2.50;;;2.30;;
934;SDS011;454;53.254;10.400;2022-08-03T16:20:08;1.90;;;1.90;;
934;SDS011;454;53.254;10.400;2022-08-03T16:22:39;3.23;;;2.20;;
934;SDS011;454;53.254;10.400;2022-08-03T16:25:08;2.47;;;2.27;;
934;SDS011;454;53.254;10.400;2022-08-03T16:27:35;2.13;;;1.90;;
934;SDS011;454;53.254;10.400;2022-08-03T16:30:02;1.70;;;1.70;;
934;SDS011;454;53.254;10.400;2022-08-03T16:32:30;2.50;;;2.30;;
934;SDS011;454;53.254;10.400;2022-08-03T16:34:57;2.40;;;2.30;;
934;SDS011;454;53.254;10.400;2022-08-03T16:37:24;2.40;;;2.30;;
934;SDS011;454;53.254;10.400;2022-08-03T16:39:51;3.00;;;2.60;;
934;SDS011;454;53.254;10.400;2022-08-03T16:42:18;5.20;;;2.07;;
934;SDS011;454;53.254;10.400;2022-08-03T16:44:44;2.03;;;2.03;;
934;SDS011;454;53.254;10.400;2022-08-03T16:47:11;2.23;;;2.13;;
934;SDS011;454;53.254;10.400;2022-08-03T16:49:39;8.33;;;2.80;;
934;SDS011;454;53.254;10.400;2022-08-03T16:52:06;2.07;;;1.97;;
934;SDS011;454;53.254;10.400;2022-08-03T16:54:33;2.63;;;1.73;;
934;SDS011;454;53.254;10.400;2022-08-03T16:56:59;4.33;;;3.00;;
934;SDS011;454;53.254;10.400;2022-08-03T16:59:26;2.70;;;2.40;;
934;SDS011;454;53.254;10.400;2022-08-03T17:01:53;2.17;;;2.17;;
934;SDS011;454;53.254;10.400;2022-08-03T17:04:20;2.60;;;2.50;;
934;SDS011;454;53.254;10.400;2022-08-03T17:06:48;6.70;;;6.20;;
934;SDS011;454;53.254;10.400;2022-08-03T17:09:15;4.00;;;3.73;;
934;SDS011;454;53.254;10.400;2022-08-03T17:11:44;4.47;;;4.03;;
934;SDS011;454;53.254;10.400;2022-08-03T17:14:13;7.97;;;7.27;;
934;SDS011;454;53.254;10.400;2022-08-03T17:16:41;9.30;;;8.50;;
934;SDS011;454;53.254;10.400;2022-08-03T17:19:09;17.80;;;16.17;;
934;SDS011;454;53.254;10.400;2022-08-03T17:21:38;3.90;;;3.70;;
934;SDS011;454;53.254;10.400;2022-08-03T17:24:13;3.57;;;3.30;;
934;SDS011;454;53.254;10.400;2022-08-03T17:26:45;2.60;;;2.50;;
934;SDS011;454;53.254;10.400;2022-08-03T17:29:14;2.73;;;2.60;;
934;SDS011;454;53.254;10.400;2022-08-03T17:31:43;2.53;;;2.30;;
934;SDS011;454;53.254;10.400;2022-08-03T17:34:10;2.33;;;2.20;;
934;SDS011;454;53.254;10.400;2022-08-03T17:36:37;2.63;;;2.53;;
934;SDS011;454;53.254;10.400;2022-08-03T17:39:04;2.33;;;2.23;;
934;SDS011;454;53.254;10.400;2022-08-03T17:41:32;2.53;;;2.40;;
934;SDS011;454;53.254;10.400;2022-08-03T17:44:02;4.90;;;2.43;;
934;SDS011;454;53.254;10.400;2022-08-03T17:46:29;2.30;;;2.20;;
934;SDS011;454;53.254;10.400;2022-08-03T17:48:55;6.37;;;2.50;;
934;SDS011;454;53.254;10.400;2022-08-03T17:51:24;4.90;;;2.37;;
934;SDS011;454;53.254;10.400;2022-08-03T17:53:57;2.10;;;2.00;;
934;SDS011;454;53.254;10.400;2022-08-03T17:56:34;7.37;;;2.57;;
934;SDS011;454;53.254;10.400;2022-08-03T17:59:10;1.87;;;1.73;;
934;SDS011;454;53.254;10.400;2022-08-03T18:01:43;4.97;;;2.90;;
934;SDS011;454;53.254;10.400;2022-08-03T18:04:31;3.40;;;2.27;;
934;SDS011;454;53.254;10.400;2022-08-03T18:07:02;2.50;;;2.40;;
934;SDS011;454;53.254;10.400;2022-08-03T18:09:32;3.13;;;2.60;;
934;SDS011;454;53.254;10.400;2022-08-03T18:12:04;2.70;;;2.50;;
934;SDS011;454;53.254;10.400;2022-08-03T18:14:34;3.40;;;2.20;;
934;SDS011;454;53.254;10.400;2022-08-03T18:17:07;3.60;;;2.60;;
934;SDS011;454;53.254;10.400;2022-08-03T18:19:39;3.60;;;3.00;;
934;SDS011;454;53.254;10.400;2022-08-03T18:22:06;3.50;;;3.30;;
934;SDS011;454;53.254;10.400;2022-08-03T18:24:33;3.93;;;3.67;;
934;SDS011;454;53.254;10.400;2022-08-03T18:27:00;4.40;;;3.00;;
934;SDS011;454;53.254;10.400;2022-08-03T18:29:30;2.80;;;2.60;;
934;SDS011;454;53.254;10.400;2022-08-03T18:31:58;3.80;;;2.80;;
934;SDS011;454;53.254;10.400;2022-08-03T18:34:25;2.50;;;2.30;;
934;SDS011;454;53.254;10.400;2022-08-03T18:36:52;2.20;;;2.00;;
934;SDS011;454;53.254;10.400;2022-08-03T18:39:20;2.90;;;2.40;;
934;SDS011;454;53.254;10.400;2022-08-03T18:41:47;2.63;;;2.40;;
934;SDS011;454;53.254;10.400;2022-08-03T18:44:13;2.80;;;2.60;;
934;SDS011;454;53.254;10.400;2022-08-03T18:46:46;2.40;;;2.30;;
934;SDS011;454;53.254;10.400;2022-08-03T18:49:25;2.50;;;2.40;;
934;SDS011;454;53.254;10.400;2022-08-03T18:52:15;3.03;;;2.67;;
934;SDS011;454;53.254;10.400;2022-08-03T18:54:49;4.87;;;3.50;;
934;SDS011;454;53.254;10.400;2022-08-03T18:57:36;3.17;;;2.87;;
934;SDS011;454;53.254;10.400;2022-08-03T19:00:08;4.53;;;3.80;;
934;SDS011;454;53.254;10.400;2022-08-03T19:02:41;3.03;;;2.90;;
934;SDS011;454;53.254;10.400;2022-08-03T19:05:14;3.10;;;2.60;;
934;SDS011;454;53.254;10.400;2022-08-03T19:07:44;4.17;;;2.97;;
934;SDS011;454;53.254;10.400;2022-08-03T19:10:21;7.80;;;4.60;;
934;SDS011;454;53.254;10.400;2022-08-03T19:12:51;3.20;;;2.97;;
934;SDS011;454;53.254;10.400;2022-08-03T19:15:20;4.23;;;3.93;;
934;SDS011;454;53.254;10.400;2022-08-03T19:17:52;4.80;;;4.40;;
934;SDS011;454;53.254;10.400;2022-08-03T19:20:22;4.67;;;4.27;;
934;SDS011;454;53.254;10.400;2022-08-03T19:22:49;4.67;;;4.20;;
934;SDS011;454;53.254;10.400;2022-08-03T19:25:16;5.47;;;3.63;;
934;SDS011;454;53.254;10.400;2022-08-03T19:27:44;3.20;;;3.00;;
934;SDS011;454;53.254;10.400;2022-08-03T19:30:11;4.13;;;3.83;;
934;SDS011;454;53.254;10.400;2022-08-03T19:33:01;3.70;;;3.50;;
934;SDS011;454;53.254;10.400;2022-08-03T19:35:28;3.97;;;3.77;;
934;SDS011;454;53.254;10.400;2022-08-03T19:37:56;3.60;;;3.40;;
934;SDS011;454;53.254;10.400;2022-08-03T19:40:23;4.40;;;4.10;;
934;SDS011;454;53.254;10.400;2022-08-03T19:42:53;5.73;;;4.70;;
934;SDS011;454;53.254;10.400;2022-08-03T19:45:25;5.10;;;4.70;;
934;SDS011;454;53.254;10.400;2022-08-03T19:48:01;3.80;;;3.60;;
934;SDS011;454;53.254;10.400;2022-08-03T19:50:30;3.27;;;3.10;;
934;SDS011;454;53.254;10.400;2022-08-03T19:53:00;3.10;;;3.00;;
934;SDS011;454;53.254;10.400;2022-08-03T19:55:29;4.07;;;3.73;;